Time;durP1;ratioP1;P1;durP2;ratioP2;P2;SDS_P1;SDS_P2;PMS_P1;PMS_P2;Temp;Humidity;BMP_temperature;BMP_pressure;BME280_temperature;BME280_humidity;BME280_pressure;Samples;Min_cycle;Max_cycle;Signal;HPM_P1;HPM_P2
2021/01/15 00:01:42;;;;;;;36.97;33.83;;;;;;;5.33;57.81;102520.56;4938770;28;20031;-89
2021/01/15 00:04:08;;;;;;;29.38;26.38;;;;;;;5.43;57.62;102518.03;4990111;28;20089;-90
2021/01/15 00:06:33;;;;;;;27.02;24.50;;;;;;;5.41;57.20;102514.56;4991754;28;20053;-88
2021/01/15 00:08:59;;;;;;;26.45;23.63;;;;;;;5.43;57.35;102526.97;4973323;28;20069;-85
2021/01/15 00:11:30;;;;;;;27.48;24.98;;;;;;;5.15;57.57;102534.50;4992004;28;20088;-84
2021/01/15 00:13:56;;;;;;;25.73;23.13;;;;;;;5.42;56.17;102524.38;4989421;28;20036;-88
2021/01/15 00:16:30;;;;;;;22.33;20.20;;;;;;;5.49;55.64;102534.56;4958810;28;20033;-87
2021/01/15 00:18:57;;;;;;;35.08;31.77;;;;;;;5.18;55.59;102531.56;4986220;28;20515;-88
2021/01/15 00:21:34;;;;;;;26.02;23.58;;;;;;;5.31;54.73;102534.16;4993127;28;20030;-86
2021/01/15 00:24:01;;;;;;;25.70;23.08;;;;;;;5.16;55.28;102547.03;4990520;28;20029;-85
2021/01/15 00:26:28;;;;;;;20.92;18.83;;;;;;;5.37;54.37;102541.78;4983026;28;20027;-85
2021/01/15 00:28:54;;;;;;;19.10;16.95;;;;;;;5.28;54.15;102547.91;4974157;28;20050;-85
2021/01/15 00:31:29;;;;;;;23.60;21.40;;;;;;;5.27;53.01;102540.81;4971698;28;20041;-85
2021/01/15 00:33:54;;;;;;;24.15;21.77;;;;;;;5.11;52.51;102551.94;4982134;28;20038;-85
2021/01/15 00:36:20;;;;;;;21.65;19.58;;;;;;;5.27;52.45;102557.00;4987444;28;20108;-85
2021/01/15 00:38:45;;;;;;;24.23;21.92;;;;;;;5.22;52.55;102558.31;4984437;28;20031;-86
2021/01/15 00:41:11;;;;;;;24.17;21.95;;;;;;;5.20;52.87;102536.84;4986778;28;20154;-86
2021/01/15 00:43:36;;;;;;;28.88;26.30;;;;;;;5.38;52.34;102553.44;4990179;28;20475;-85
2021/01/15 00:46:07;;;;;;;24.77;22.30;;;;;;;5.02;52.22;102556.19;4993565;28;20229;-86
2021/01/15 00:48:36;;;;;;;27.67;25.02;;;;;;;5.24;51.73;102553.69;4989323;28;20058;-86
2021/01/15 00:51:11;;;;;;;24.20;21.92;;;;;;;5.49;51.77;102553.47;4987717;28;20033;-87
2021/01/15 00:53:37;;;;;;;26.98;24.58;;;;;;;5.52;51.44;102558.63;4985853;28;20481;-85
2021/01/15 00:56:03;;;;;;;27.90;25.40;;;;;;;5.36;51.46;102567.06;4980670;28;20049;-86
2021/01/15 00:58:28;;;;;;;27.10;24.75;;;;;;;5.56;51.41;102562.81;4975172;28;20053;-86
2021/01/15 01:00:53;;;;;;;26.92;24.02;;;;;;;5.48;51.80;102572.47;4958901;28;20503;-86
2021/01/15 01:03:19;;;;;;;29.48;26.73;;;;;;;5.16;52.52;102565.06;4992682;28;20065;-86
2021/01/15 01:05:44;;;;;;;29.70;26.95;;;;;;;5.14;52.17;102569.69;4991181;28;20035;-87
2021/01/15 01:08:10;;;;;;;17.67;15.98;;;;;;;5.00;51.09;102568.94;4991850;28;20072;-89
2021/01/15 01:10:37;;;;;;;19.77;18.05;;;;;;;5.05;50.10;102581.19;4957945;28;20125;-88
2021/01/15 01:13:03;;;;;;;26.17;23.63;;;;;;;5.18;50.25;102587.38;4990723;28;20382;-87
2021/01/15 01:15:28;;;;;;;15.68;14.23;;;;;;;5.23;50.62;102590.56;4990800;28;20049;-89
2021/01/15 01:17:53;;;;;;;24.63;22.27;;;;;;;5.43;50.81;102594.41;5002350;28;20030;-89
2021/01/15 01:20:19;;;;;;;22.48;20.27;;;;;;;5.53;51.41;102597.25;4980076;28;20546;-86
2021/01/15 01:22:49;;;;;;;19.88;18.10;;;;;;;5.45;50.60;102591.59;4991478;28;20409;-87
2021/01/15 01:25:16;;;;;;;20.52;18.45;;;;;;;5.64;49.65;102607.19;4992185;28;20465;-87
2021/01/15 01:27:42;;;;;;;20.15;18.40;;;;;;;5.63;49.54;102603.66;4990930;28;20607;-84
2021/01/15 01:30:08;;;;;;;20.27;18.58;;;;;;;5.90;49.57;102605.16;4960446;28;20038;-85
2021/01/15 01:32:33;;;;;;;20.35;18.63;;;;;;;5.60;50.01;102611.16;4968846;28;20046;-88
2021/01/15 01:34:59;;;;;;;19.05;17.38;;;;;;;5.30;50.32;102607.13;4961255;28;20052;-88
2021/01/15 01:37:24;;;;;;;18.50;16.67;;;;;;;5.74;50.57;102614.47;4972949;28;20042;-88
2021/01/15 01:39:49;;;;;;;27.20;24.80;;;;;;;5.66;50.74;102634.94;4991716;28;20030;-88
2021/01/15 01:42:15;;;;;;;22.92;21.02;;;;;;;5.74;50.39;102636.06;4977944;28;20081;-87
2021/01/15 01:44:40;;;;;;;19.27;17.52;;;;;;;5.81;50.54;102639.16;4986792;28;20677;-88
2021/01/15 01:47:07;;;;;;;19.80;17.83;;;;;;;5.43;51.11;102656.47;4976940;28;20512;-87
2021/01/15 01:49:32;;;;;;;19.77;18.08;;;;;;;5.38;50.25;102646.03;4987552;28;20046;-88
2021/01/15 01:52:02;;;;;;;18.17;14.98;;;;;;;5.44;49.53;102646.53;4994036;28;20066;-87
2021/01/15 01:54:28;;;;;;;18.35;16.75;;;;;;;5.24;50.17;102653.47;4997615;28;20062;-88
2021/01/15 01:56:54;;;;;;;15.63;14.10;;;;;;;5.62;49.66;102647.81;4992432;28;20034;-89
2021/01/15 01:59:20;;;;;;;26.65;24.35;;;;;;;5.57;50.71;102650.00;4967466;28;20045;-89
2021/01/15 02:01:45;;;;;;;19.02;17.20;;;;;;;5.56;49.21;102651.88;4969065;28;20448;-89
2021/01/15 02:04:10;;;;;;;23.30;21.48;;;;;;;5.74;49.52;102652.25;4988759;28;20481;-86
2021/01/15 02:06:40;;;;;;;19.33;17.55;;;;;;;5.75;49.02;102647.72;4968276;28;20038;-87
2021/01/15 02:09:06;;;;;;;20.88;18.95;;;;;;;5.67;49.11;102650.16;4971779;28;20030;-89
2021/01/15 02:11:41;;;;;;;26.63;24.52;;;;;;;5.69;49.21;102661.72;4973748;28;20034;-87
2021/01/15 02:14:19;;;;;;;18.60;16.90;;;;;;;5.72;49.40;102667.72;4985817;28;20448;-88
2021/01/15 02:16:44;;;;;;;18.52;16.65;;;;;;;5.59;49.42;102661.53;4988553;28;20038;-88
2021/01/15 02:19:25;;;;;;;17.45;15.88;;;;;;;5.81;49.84;102657.16;4986111;28;20104;-88
2021/01/15 02:22:08;;;;;;;17.40;15.80;;;;;;;5.91;49.72;102658.19;4987321;28;20030;-89
2021/01/15 02:24:34;;;;;;;18.15;16.65;;;;;;;5.86;49.80;102673.91;4987856;28;20868;-88
2021/01/15 02:27:08;;;;;;;20.92;19.08;;;;;;;5.92;50.35;102670.72;4992130;28;20033;-90
2021/01/15 02:29:34;;;;;;;29.90;24.10;;;;;;;5.92;50.26;102668.00;4987494;28;20045;-89
2021/01/15 02:32:38;;;;;;;29.35;27.02;;;;;;;5.84;49.86;102668.63;4949383;28;20034;-89
2021/01/15 02:35:17;;;;;;;20.75;18.65;;;;;;;5.77;49.54;102666.50;4986897;28;20034;-87
2021/01/15 02:38:06;;;;;;;24.48;22.58;;;;;;;5.79;49.39;102667.25;4985872;28;20501;-87
2021/01/15 02:40:57;;;;;;;21.75;20.05;;;;;;;5.77;49.49;102674.59;4964841;28;20146;-88
2021/01/15 02:43:25;;;;;;;19.63;17.23;;;;;;;5.67;49.79;102674.44;4980816;28;20034;-87
2021/01/15 02:45:54;;;;;;;21.20;19.40;;;;;;;5.54;49.51;102678.09;4986738;28;20038;-88
2021/01/15 02:48:22;;;;;;;21.35;19.45;;;;;;;5.84;49.36;102673.13;4986967;28;20122;-86
2021/01/15 02:50:47;;;;;;;26.65;24.40;;;;;;;5.75;49.21;102674.72;4985940;28;20209;-87
2021/01/15 02:53:16;;;;;;;24.77;22.65;;;;;;;5.82;49.28;102659.75;4953955;28;20455;-86
2021/01/15 02:55:41;;;;;;;23.13;21.27;;;;;;;5.62;49.62;102672.09;4983676;28;20124;-87
2021/01/15 02:58:07;;;;;;;26.58;24.38;;;;;;;5.86;49.18;102673.91;4985003;28;20030;-87
2021/01/15 03:00:32;;;;;;;19.52;17.58;;;;;;;5.77;49.12;102666.50;4954421;28;20046;-88
2021/01/15 03:03:23;;;;;;;20.48;18.67;;;;;;;5.81;49.44;102678.78;4986740;28;20137;-87
2021/01/15 03:06:04;;;;;;;21.42;19.73;;;;;;;5.84;49.57;102667.72;4985041;28;20034;-86
2021/01/15 03:08:30;;;;;;;;;;;;;;;5.71;49.21;102681.34;4986479;28;20393;-85
2021/01/15 03:11:00;;;;;;;27.02;24.77;;;;;;;5.74;49.35;102675.69;4984106;28;19925;-86
2021/01/15 03:13:28;;;;;;;30.35;27.95;;;;;;;5.71;49.08;102687.59;4970873;28;20141;-87
2021/01/15 03:15:57;;;;;;;22.33;20.67;;;;;;;5.81;49.13;102682.34;4970151;28;20034;-87
2021/01/15 03:18:23;;;;;;;22.35;20.77;;;;;;;5.89;49.01;102681.75;4984353;28;20119;-87
2021/01/15 03:20:49;;;;;;;30.25;27.90;;;;;;;5.87;49.05;102687.28;4991284;28;20035;-87
2021/01/15 03:23:14;;;;;;;27.98;25.70;;;;;;;5.92;49.06;102685.06;4966489;28;20031;-85
2021/01/15 03:25:39;;;;;;;27.45;25.20;;;;;;;5.81;48.99;102682.34;4983197;28;20046;-86
2021/01/15 03:28:05;;;;;;;33.05;30.48;;;;;;;5.67;47.76;102686.13;4983444;28;20527;-88
2021/01/15 03:30:31;;;;;;;30.98;28.25;;;;;;;5.83;47.79;102684.94;4967491;28;20030;-86
2021/01/15 03:32:58;;;;;;;23.70;22.02;;;;;;;5.63;47.74;102691.88;4983447;28;20034;-86
2021/01/15 03:35:25;;;;;;;16.33;14.88;;;;;;;5.90;47.25;102688.84;4984839;28;20042;-86
2021/01/15 03:38:05;;;;;;;20.73;18.98;;;;;;;5.62;48.21;102696.38;4982663;28;20162;-87
2021/01/15 03:40:33;;;;;;;22.88;20.90;;;;;;;5.89;48.09;102688.00;4967840;28;20035;-88
2021/01/15 03:42:59;;;;;;;18.40;16.77;;;;;;;5.89;48.03;102695.25;4987305;28;20034;-89
2021/01/15 03:45:26;;;;;;;25.98;23.75;;;;;;;5.87;47.80;102689.97;4986175;28;20515;-87
2021/01/15 03:47:52;;;;;;;23.17;21.30;;;;;;;5.97;47.70;102698.25;4970247;28;20038;-88
2021/01/15 03:50:17;;;;;;;20.75;19.05;;;;;;;5.91;47.71;102690.59;4986772;28;20080;-89
2021/01/15 03:52:43;;;;;;;14.80;13.50;;;;;;;5.90;47.77;102700.53;4968264;28;20034;-88
2021/01/15 03:55:09;;;;;;;18.42;16.92;;;;;;;6.11;47.49;102697.16;4968143;28;20491;-88
2021/01/15 03:57:34;;;;;;;15.93;14.63;;;;;;;6.17;47.55;102696.66;4954372;28;20049;-89
2021/01/15 04:00:01;;;;;;;20.10;18.27;;;;;;;6.09;48.70;102710.78;4986287;28;20030;-89
2021/01/15 04:02:26;;;;;;;18.60;16.92;;;;;;;6.18;48.08;102711.91;4968946;28;20090;-89
2021/01/15 04:04:52;;;;;;;20.65;18.65;;;;;;;6.02;48.79;102708.69;4970162;28;20034;-89
2021/01/15 04:07:20;;;;;;;18.42;16.73;;;;;;;6.01;48.61;102707.84;4971187;28;20038;-90
2021/01/15 04:09:45;;;;;;;21.33;19.52;;;;;;;6.01;48.57;102694.31;4986963;28;20136;-86
2021/01/15 04:12:11;;;;;;;19.60;17.70;;;;;;;5.98;48.65;102713.47;4985280;28;20401;-87
2021/01/15 04:14:40;;;;;;;20.60;18.90;;;;;;;5.91;48.34;102706.78;4985962;28;20034;-86
2021/01/15 04:17:06;;;;;;;18.38;16.88;;;;;;;6.00;48.47;102713.34;4984377;28;20038;-87
2021/01/15 04:19:32;;;;;;;16.75;14.52;;;;;;;6.05;48.56;102714.69;4988997;28;20069;-87
2021/01/15 04:21:57;;;;;;;23.83;21.73;;;;;;;6.06;48.63;102720.97;4984798;28;20489;-87
2021/01/15 04:24:23;;;;;;;27.33;25.17;;;;;;;6.09;48.62;102718.03;4984509;28;20049;-87
2021/01/15 04:26:55;;;;;;;23.23;21.13;;;;;;;6.12;48.86;102725.00;4984001;28;20026;-87
2021/01/15 04:29:22;;;;;;;25.33;23.23;;;;;;;6.09;48.99;102718.03;4987132;28;20042;-87
2021/01/15 04:31:47;;;;;;;21.30;19.33;;;;;;;6.05;49.04;102716.53;4985322;28;20030;-86
2021/01/15 04:34:13;;;;;;;21.80;20.00;;;;;;;6.08;49.29;102722.56;4954404;28;20038;-87
2021/01/15 04:36:39;;;;;;;19.95;18.35;;;;;;;6.09;49.56;102724.28;4960188;28;20050;-86
2021/01/15 04:39:05;;;;;;;23.73;20.10;;;;;;;6.05;49.81;102727.34;4988089;28;20030;-86
2021/01/15 04:41:32;;;;;;;16.77;15.27;;;;;;;6.03;49.53;102722.06;4988717;28;20331;-87
2021/01/15 04:43:58;;;;;;;20.42;18.60;;;;;;;5.97;49.84;102722.53;4987401;28;20034;-86
2021/01/15 04:46:24;;;;;;;17.60;16.08;;;;;;;5.98;49.66;102726.97;4997065;28;20034;-87
2021/01/15 04:48:50;;;;;;;27.13;24.80;;;;;;;5.99;49.65;102736.78;4986626;28;20038;-87
2021/01/15 04:51:26;;;;;;;24.27;22.25;;;;;;;5.86;49.80;102736.84;4973582;28;20415;-86
2021/01/15 04:54:01;;;;;;;26.02;23.80;;;;;;;5.90;49.66;102737.47;4985210;28;20041;-87
2021/01/15 04:56:36;;;;;;;23.67;21.45;;;;;;;5.83;50.18;102730.84;4986524;28;20023;-89
2021/01/15 04:59:03;;;;;;;20.30;18.38;;;;;;;5.89;50.03;102730.34;4988863;28;20026;-87
2021/01/15 05:01:46;;;;;;;18.90;17.20;;;;;;;5.72;50.69;102734.34;4991566;28;20113;-88
2021/01/15 05:04:13;;;;;;;19.67;17.98;;;;;;;5.76;50.46;102737.66;4966540;28;20022;-87
2021/01/15 05:06:49;;;;;;;18.35;16.52;;;;;;;5.82;50.25;102739.91;4991283;28;20038;-87
2021/01/15 05:09:24;;;;;;;25.90;23.77;;;;;;;5.88;49.84;102737.56;4988033;28;20049;-86
2021/01/15 05:11:52;;;;;;;30.95;28.58;;;;;;;5.88;49.74;102739.44;4988444;28;20022;-87
2021/01/15 05:14:21;;;;;;;31.85;29.45;;;;;;;5.85;49.72;102735.13;4968538;28;20136;-88
2021/01/15 05:16:50;;;;;;;31.40;28.65;;;;;;;5.85;49.77;102735.13;4986379;28;20034;-88
2021/01/15 05:19:16;;;;;;;19.27;17.65;;;;;;;5.89;49.79;102749.25;4960216;28;20520;-89
2021/01/15 05:21:42;;;;;;;23.55;21.40;;;;;;;6.00;49.59;102740.34;4987854;28;20089;-88
2021/01/15 05:24:09;;;;;;;36.92;34.03;;;;;;;6.00;49.84;102743.06;4983288;28;20213;-88
2021/01/15 05:26:35;;;;;;;23.50;21.42;;;;;;;5.99;49.61;102752.97;4986678;28;20034;-88
2021/01/15 05:29:02;;;;;;;30.75;28.35;;;;;;;6.03;49.73;102753.63;4988646;28;20097;-87
2021/01/15 05:31:28;;;;;;;26.15;23.95;;;;;;;5.99;49.94;102761.09;4987080;28;20041;-87
2021/01/15 05:34:08;;;;;;;32.17;29.33;;;;;;;6.01;49.89;102761.84;4985443;28;20031;-87
2021/01/15 05:36:35;;;;;;;32.53;29.65;;;;;;;6.04;49.84;102768.81;4984649;28;20076;-88
2021/01/15 05:39:25;;;;;;;31.55;29.20;;;;;;;6.04;50.15;102763.44;4986990;28;20093;-88
2021/01/15 05:41:58;;;;;;;31.30;28.60;;;;;;;5.99;50.45;102768.34;4970132;28;20080;-87
2021/01/15 05:44:26;;;;;;;24.02;21.80;;;;;;;5.99;50.47;102773.72;4978419;28;20464;-88
2021/01/15 05:46:51;;;;;;;29.75;27.33;;;;;;;6.03;50.50;102775.22;4985184;28;20031;-88
2021/01/15 05:49:17;;;;;;;32.10;29.50;;;;;;;6.01;51.10;102771.75;4988787;28;20471;-87
2021/01/15 05:51:42;;;;;;;29.55;27.35;;;;;;;6.06;50.84;102775.00;4988669;28;20480;-87
2021/01/15 05:54:09;;;;;;;30.70;28.40;;;;;;;6.06;51.00;102781.25;4986366;28;20038;-87
2021/01/15 05:56:45;;;;;;;34.22;31.55;;;;;;;6.04;51.20;102788.63;4982916;28;20062;-87
2021/01/15 05:59:15;;;;;;;32.40;29.77;;;;;;;5.94;51.37;102781.31;4970219;28;20504;-86
2021/01/15 06:02:19;;;;;;;25.27;23.13;;;;;;;6.04;51.48;102798.53;4988050;28;20026;-85
2021/01/15 06:04:45;;;;;;;22.23;20.42;;;;;;;6.02;51.23;102793.25;4953715;28;20056;-85
2021/01/15 06:07:10;;;;;;;26.65;24.48;;;;;;;6.03;50.84;102792.28;4963732;28;20035;-85
2021/01/15 06:09:37;;;;;;;26.85;24.73;;;;;;;6.07;50.94;102793.78;4985223;28;20042;-85
2021/01/15 06:12:07;;;;;;;25.67;23.48;;;;;;;6.06;50.85;102786.66;4971001;28;20394;-86
2021/01/15 06:14:33;;;;;;;25.23;23.05;;;;;;;6.05;51.41;102790.31;4987633;28;20455;-86
2021/01/15 06:17:09;;;;;;;21.67;19.67;;;;;;;6.00;51.02;102789.81;4985969;28;20065;-85
2021/01/15 06:20:02;;;;;;;22.38;20.25;;;;;;;6.05;51.13;102793.00;4969406;28;20640;-85
2021/01/15 06:22:29;;;;;;;27.70;25.13;;;;;;;6.09;51.14;102799.91;4977104;28;20043;-85
2021/01/15 06:25:20;;;;;;;24.17;22.08;;;;;;;6.05;50.87;102805.66;4981561;28;20134;-87
2021/01/15 06:27:47;;;;;;;23.23;20.70;;;;;;;5.99;51.04;102807.00;4986940;28;20034;-87
2021/01/15 06:30:15;;;;;;;23.50;21.52;;;;;;;6.03;50.96;102795.00;4953968;28;20165;-87
2021/01/15 06:32:42;;;;;;;21.73;19.75;;;;;;;6.03;50.94;102800.38;4980803;28;20657;-87
2021/01/15 06:35:21;;;;;;;19.20;17.27;;;;;;;6.03;50.91;102803.09;4982410;28;20034;-87
2021/01/15 06:37:57;;;;;;;16.35;14.40;;;;;;;6.01;50.84;102807.75;4981085;28;20369;-87
2021/01/15 06:40:32;;;;;;;20.83;19.02;;;;;;;6.08;51.00;102811.69;4980289;28;20112;-86
2021/01/15 06:43:01;;;;;;;22.55;20.52;;;;;;;6.01;50.89;102817.69;4984991;28;20037;-87
2021/01/15 06:45:36;;;;;;;18.92;17.17;;;;;;;6.00;51.25;102821.38;4963364;28;20473;-87
2021/01/15 06:48:09;;;;;;;18.83;16.55;;;;;;;5.98;51.40;102824.19;4982027;28;20050;-86
2021/01/15 06:50:37;;;;;;;18.42;16.77;;;;;;;6.00;51.33;102824.94;4981108;28;20034;-87
2021/01/15 06:53:20;;;;;;;22.63;20.52;;;;;;;5.97;51.41;102833.25;4982873;28;20122;-86
2021/01/15 06:55:51;;;;;;;18.92;17.15;;;;;;;6.01;51.44;102832.06;4985693;28;20113;-86
2021/01/15 06:58:32;;;;;;;20.10;18.35;;;;;;;6.07;50.89;102842.41;4985158;28;20548;-86
2021/01/15 07:01:17;;;;;;;14.73;13.40;;;;;;;6.04;50.93;102848.03;4986899;28;20038;-86
2021/01/15 07:04:10;;;;;;;23.13;20.92;;;;;;;6.04;50.88;102850.75;4984470;28;20121;-85
2021/01/15 07:06:36;;;;;;;25.33;23.13;;;;;;;6.09;50.89;102844.97;4975923;28;20594;-85
2021/01/15 07:09:04;;;;;;;22.58;20.58;;;;;;;6.09;50.90;102844.97;4968101;28;20038;-85
2021/01/15 07:11:30;;;;;;;21.73;19.67;;;;;;;6.08;50.65;102849.50;4983447;28;20035;-86
2021/01/15 07:13:57;;;;;;;15.85;14.32;;;;;;;6.11;50.63;102848.41;4984986;28;20026;-85
2021/01/15 07:16:25;;;;;;;19.23;17.52;;;;;;;6.11;50.63;102856.53;4986709;28;20042;-86
2021/01/15 07:19:00;;;;;;;23.08;21.15;;;;;;;6.13;50.56;102856.41;4985547;28;20034;-86
2021/01/15 07:21:33;;;;;;;21.75;19.55;;;;;;;6.07;50.70;102846.91;4985041;28;20030;-85
2021/01/15 07:24:10;;;;;;;19.80;17.73;;;;;;;6.09;50.79;102864.75;4984948;28;20130;-85
2021/01/15 07:26:40;;;;;;;23.27;21.17;;;;;;;6.14;50.74;102860.84;4960509;28;20422;-85
2021/01/15 07:29:15;;;;;;;31.13;28.55;;;;;;;6.11;51.58;102864.63;4984793;28;20046;-85
2021/01/15 07:31:45;;;;;;;24.52;22.45;;;;;;;6.17;51.32;102874.13;4983550;28;20030;-85
2021/01/15 07:34:16;;;;;;;23.58;21.52;;;;;;;6.18;51.20;102876.69;4983930;28;20377;-85
2021/01/15 07:36:42;;;;;;;25.52;23.33;;;;;;;6.17;51.69;102872.25;4980777;28;20039;-85
2021/01/15 07:39:15;;;;;;;27.73;25.33;;;;;;;6.19;51.82;102877.56;4965303;28;20664;-87
2021/01/15 07:41:45;;;;;;;26.70;24.48;;;;;;;6.15;51.55;102876.06;4983829;28;20045;-87
2021/01/15 07:44:37;;;;;;;24.02;21.98;;;;;;;6.18;51.48;102882.09;4968077;28;20425;-86
2021/01/15 07:47:02;;;;;;;;;;;;;;;6.15;51.27;102887.75;4970670;28;20080;-86
2021/01/15 07:49:47;;;;;;;24.58;22.48;;;;;;;6.22;51.41;102885.41;4982691;28;19926;-85
2021/01/15 07:52:14;;;;;;;28.98;26.48;;;;;;;6.19;51.25;102889.22;4987119;28;20365;-86
2021/01/15 07:54:57;;;;;;;22.42;20.42;;;;;;;6.20;51.30;102899.03;4969723;28;20084;-86
2021/01/15 07:57:24;;;;;;;28.63;26.15;;;;;;;6.18;51.32;102898.31;4982336;28;20070;-86
2021/01/15 07:59:50;;;;;;;19.88;18.05;;;;;;;6.19;51.58;102891.06;4987348;28;20026;-86
2021/01/15 08:02:16;;;;;;;21.70;19.73;;;;;;;6.21;51.88;102898.09;4983465;28;20037;-86
2021/01/15 08:04:42;;;;;;;18.13;16.30;;;;;;;6.23;52.02;102892.56;4979888;28;20046;-85
2021/01/15 08:07:11;;;;;;;27.75;25.55;;;;;;;6.24;52.15;102896.97;4989227;28;20030;-86
2021/01/15 08:09:41;;;;;;;19.20;17.45;;;;;;;6.27;52.25;102900.31;4990743;28;20124;-86
2021/01/15 08:12:06;;;;;;;21.60;19.80;;;;;;;6.23;52.18;102888.00;4987165;28;20436;-86
2021/01/15 08:14:32;;;;;;;23.85;21.70;;;;;;;6.27;52.64;102897.63;4990033;28;20117;-86
2021/01/15 08:16:58;;;;;;;22.85;20.70;;;;;;;6.30;52.78;102898.34;4968953;28;20031;-87
2021/01/15 08:19:24;;;;;;;20.75;18.90;;;;;;;6.31;52.71;102906.34;4990607;28;20055;-86
2021/01/15 08:21:51;;;;;;;24.30;22.20;;;;;;;6.31;53.02;102894.69;4985271;28;20126;-86
2021/01/15 08:24:22;;;;;;;23.27;21.13;;;;;;;6.31;53.18;102903.63;4970958;28;20428;-86
2021/01/15 08:26:57;;;;;;;26.13;23.83;;;;;;;6.35;53.08;102905.13;4983600;28;20038;-85
2021/01/15 08:29:24;;;;;;;21.88;19.92;;;;;;;6.38;53.44;102912.13;4978783;28;20070;-85
2021/01/15 08:31:56;;;;;;;19.73;17.83;;;;;;;6.37;53.37;102913.97;4984460;28;20032;-87
2021/01/15 08:34:23;;;;;;;19.90;18.15;;;;;;;6.38;53.46;102923.81;4982839;28;20049;-86
2021/01/15 08:36:54;;;;;;;18.38;16.60;;;;;;;6.38;53.40;102921.13;4979504;28;20050;-86
2021/01/15 08:39:20;;;;;;;21.83;19.92;;;;;;;6.40;53.19;102921.00;4980868;28;20030;-85
2021/01/15 08:41:58;;;;;;;20.77;18.85;;;;;;;6.34;53.21;102910.66;4965287;28;20069;-86
2021/01/15 08:44:25;;;;;;;25.63;23.40;;;;;;;6.39;53.35;102917.41;4983433;28;20101;-85
2021/01/15 08:46:53;;;;;;;20.40;18.15;;;;;;;6.38;53.48;102922.94;4985619;28;20401;-86
2021/01/15 08:49:22;;;;;;;18.55;16.80;;;;;;;6.38;53.53;102921.13;4952310;28;20401;-86
2021/01/15 08:51:50;;;;;;;19.15;17.23;;;;;;;6.44;53.80;102926.06;4970970;28;20041;-85
2021/01/15 08:54:18;;;;;;;22.45;20.42;;;;;;;6.43;53.67;102935.13;4968591;28;20061;-85
2021/01/15 08:56:45;;;;;;;26.63;24.35;;;;;;;6.45;53.72;102935.00;4987664;28;20417;-86
2021/01/15 08:59:25;;;;;;;18.90;16.75;;;;;;;6.48;53.54;102934.78;4982913;28;20092;-86
2021/01/15 09:01:52;;;;;;;18.80;16.80;;;;;;;6.44;53.51;102933.28;4987103;28;20477;-85
2021/01/15 09:04:23;;;;;;;21.70;18.80;;;;;;;6.56;53.30;102942.28;4986715;28;20555;-86
2021/01/15 09:06:52;;;;;;;17.45;15.73;;;;;;;6.49;53.49;102938.31;4987687;28;20362;-87
2021/01/15 09:09:20;;;;;;;19.13;17.38;;;;;;;6.61;53.59;102954.50;4988828;28;20037;-86
2021/01/15 09:11:48;;;;;;;19.33;16.35;;;;;;;6.63;53.96;102955.22;4989206;28;20034;-86
2021/01/15 09:14:13;;;;;;;19.45;17.60;;;;;;;6.69;54.05;102955.72;4987358;28;20033;-87
2021/01/15 09:16:41;;;;;;;22.75;20.75;;;;;;;6.65;54.42;102955.09;4986472;28;20034;-86
2021/01/15 09:19:08;;;;;;;24.00;21.88;;;;;;;6.68;53.98;102960.28;4989444;28;20034;-86
2021/01/15 09:22:07;;;;;;;20.83;18.83;;;;;;;6.67;54.06;102949.56;4967247;28;20023;-86
2021/01/15 09:24:36;;;;;;;23.02;20.95;;;;;;;6.75;54.33;102964.25;4984417;28;20057;-85
2021/01/15 09:27:04;;;;;;;22.02;19.67;;;;;;;6.77;53.92;102972.22;4966084;28;20402;-85
2021/01/15 09:29:30;;;;;;;23.55;21.27;;;;;;;6.77;53.82;102975.78;4983781;28;20038;-86
2021/01/15 09:31:56;;;;;;;19.98;17.98;;;;;;;6.81;53.84;102971.00;4986702;28;20037;-86
2021/01/15 09:34:23;;;;;;;22.45;20.23;;;;;;;6.85;53.93;102979.75;4967475;28;20544;-86
2021/01/15 09:36:50;;;;;;;21.83;19.80;;;;;;;6.85;53.80;102977.06;4951097;28;20050;-86
2021/01/15 09:39:17;;;;;;;20.92;18.98;;;;;;;6.89;53.90;102982.09;4974986;28;20030;-86
2021/01/15 09:41:48;;;;;;;23.27;21.17;;;;;;;6.87;54.02;102977.78;4984857;28;20072;-86
2021/01/15 09:44:14;;;;;;;22.48;20.38;;;;;;;6.91;54.06;102981.97;4983477;28;20113;-86
2021/01/15 09:46:40;;;;;;;19.73;17.75;;;;;;;6.92;54.03;102978.28;4983121;28;20035;-86
2021/01/15 09:49:06;;;;;;;14.25;12.48;;;;;;;6.91;53.93;102977.44;4981960;28;20093;-85
2021/01/15 09:51:34;;;;;;;23.90;21.58;;;;;;;6.95;53.61;102989.75;4966719;28;20457;-87
2021/01/15 09:54:00;;;;;;;21.85;19.83;;;;;;;6.98;53.50;102988.63;4978700;28;20493;-85
2021/01/15 09:56:30;;;;;;;18.05;16.38;;;;;;;7.01;53.53;102998.34;4983679;28;20141;-86
2021/01/15 09:58:59;;;;;;;16.83;15.30;;;;;;;7.03;53.56;103002.66;4980523;28;20041;-87
2021/01/15 10:01:26;;;;;;;20.08;18.27;;;;;;;7.04;53.36;103001.66;4980571;28;20562;-85
2021/01/15 10:03:53;;;;;;;21.85;20.00;;;;;;;7.07;53.22;103011.41;4981666;28;20084;-86
2021/01/15 10:06:19;;;;;;;19.83;18.13;;;;;;;7.05;53.12;103003.41;4961618;28;20045;-86
2021/01/15 10:08:45;;;;;;;21.27;19.45;;;;;;;7.11;52.72;103013.75;4968162;28;20061;-87
2021/01/15 10:11:19;;;;;;;18.90;17.13;;;;;;;7.13;52.58;103014.47;4983161;28;20509;-87
2021/01/15 10:13:45;;;;;;;18.15;16.55;;;;;;;7.16;52.92;103014.25;4983717;28;20034;-87
2021/01/15 10:16:11;;;;;;;22.50;20.45;;;;;;;7.20;52.98;103011.28;4950961;28;20042;-87
2021/01/15 10:18:36;;;;;;;21.90;19.98;;;;;;;7.22;52.70;103012.91;4984310;28;20030;-88
2021/01/15 10:21:03;;;;;;;20.17;18.55;;;;;;;7.15;52.63;102993.59;4980168;28;20030;-88
2021/01/15 10:23:28;;;;;;;22.63;20.65;;;;;;;7.25;52.72;103015.38;4964871;28;20408;-87
2021/01/15 10:25:54;;;;;;;16.70;15.13;;;;;;;7.28;52.61;103017.84;4952355;28;20458;-88
2021/01/15 10:28:19;;;;;;;19.80;18.10;;;;;;;7.34;52.57;103021.91;4965271;28;20501;-87
2021/01/15 10:30:46;;;;;;;18.08;16.48;;;;;;;7.32;52.33;103016.63;4962605;28;20027;-88
2021/01/15 10:33:12;;;;;;;21.10;19.05;;;;;;;7.37;52.18;103023.50;4980819;28;20057;-88
2021/01/15 10:35:37;;;;;;;22.33;20.52;;;;;;;7.39;52.50;103027.81;4982524;28;20030;-88
2021/01/15 10:38:03;;;;;;;19.45;17.63;;;;;;;7.41;52.65;103020.44;4977740;28;20042;-87
2021/01/15 10:40:28;;;;;;;15.18;13.77;;;;;;;7.41;52.77;103015.00;4983439;28;20494;-87
2021/01/15 10:42:54;;;;;;;24.25;22.08;;;;;;;7.45;52.91;103015.66;4964873;28;20046;-87
2021/01/15 10:45:19;;;;;;;21.33;19.55;;;;;;;7.48;52.94;103013.56;4949736;28;20409;-86
2021/01/15 10:47:44;;;;;;;17.65;16.15;;;;;;;7.55;52.88;103027.44;4963749;28;20034;-87
2021/01/15 10:50:12;;;;;;;17.42;15.90;;;;;;;7.59;52.97;103019.97;4979957;28;20493;-86
2021/01/15 10:52:38;;;;;;;19.38;17.50;;;;;;;7.55;53.05;103008.50;4982028;28;20034;-87
2021/01/15 10:55:03;;;;;;;16.60;14.38;;;;;;;7.58;53.19;103023.66;4961469;28;20038;-87
2021/01/15 10:57:29;;;;;;;17.35;15.52;;;;;;;7.67;53.25;103033.75;4981992;28;20491;-86
2021/01/15 10:59:54;;;;;;;20.42;18.55;;;;;;;7.69;53.23;103031.75;4977320;28;20034;-86
2021/01/15 11:02:20;;;;;;;19.63;17.80;;;;;;;7.71;52.92;103036.09;4982906;28;20054;-85
2021/01/15 11:04:45;;;;;;;15.18;13.65;;;;;;;7.71;52.84;103029.81;4962423;28;20030;-87
2021/01/15 11:07:10;;;;;;;15.45;13.93;;;;;;;7.77;52.46;103033.84;4962562;28;20351;-86
2021/01/15 11:09:36;;;;;;;15.68;14.35;;;;;;;7.76;51.98;103041.13;4979918;28;20500;-86
2021/01/15 11:12:01;;;;;;;17.45;15.65;;;;;;;7.73;51.89;103014.28;4947230;28;20042;-87
2021/01/15 11:14:27;;;;;;;13.02;11.60;;;;;;;7.85;51.50;103037.69;4981675;28;20529;-86
2021/01/15 11:16:54;;;;;;;14.25;13.05;;;;;;;7.91;51.66;103030.03;4963280;28;20488;-86
2021/01/15 11:19:19;;;;;;;11.90;10.43;;;;;;;7.85;51.12;103034.97;4966772;28;20092;-87
2021/01/15 11:21:45;;;;;;;21.10;18.25;;;;;;;7.88;51.06;103037.44;4978311;28;20046;-87
2021/01/15 11:24:11;;;;;;;17.90;16.05;;;;;;;7.87;50.64;103037.56;4980925;28;20037;-86
2021/01/15 11:26:37;;;;;;;13.38;12.18;;;;;;;7.90;50.03;103048.16;4951046;28;20042;-87